Time;durP1;ratioP1;P1;durP2;ratioP2;P2;SDS_P1;SDS_P2;PMS_P1;PMS_P2;Temp;Humidity;BMP_temperature;BMP_pressure;BME280_temperature;BME280_humidity;BME280_pressure;Samples;Min_cycle;Max_cycle;Signal;HPM_P1;HPM_P2
2024/04/06 00:01:30;;;;;;;;;;;;;;;13.53;100.00;101133.47;4987834;28;1108;-71
2024/04/06 00:03:55;;;;;;;;;;;;;;;13.54;100.00;101123.56;4999110;28;1914;-71
2024/04/06 00:06:20;;;;;;;;;;;;;;;13.52;100.00;101122.94;5019807;28;1113;-71
2024/04/06 00:08:47;;;;;;;;;;;;;;;13.51;100.00;101108.66;5008830;28;1284;-72
2024/04/06 00:11:13;;;;;;;;;;;;;;;13.51;100.00;101116.75;5005176;28;1025;-71
2024/04/06 00:13:38;;;;;;;;;;;;;;;13.51;100.00;101110.53;4986413;28;1422;-71
2024/04/06 00:16:03;;;;;;;;;;;;;;;13.49;100.00;101113.44;4978487;28;1154;-71
2024/04/06 00:18:28;;;;;;;;;;;;;;;13.48;100.00;101111.81;4988029;28;1029;-71
2024/04/06 00:20:54;;;;;;;;;;;;;;;13.48;100.00;101127.97;5003627;28;1112;-71
2024/04/06 00:23:19;;;;;;;;;;;;;;;13.47;100.00;101122.81;5003935;28;1906;-71
2024/04/06 00:25:45;;;;;;;;;;;;;;;13.47;100.00;101126.31;5004860;28;1670;-71
2024/04/06 00:28:10;;;;;;;;;;;;;;;13.46;100.00;101131.94;4991547;28;1220;-71
2024/04/06 00:30:35;;;;;;;;;;;;;;;13.45;100.00;101141.91;4994212;28;1053;-71
2024/04/06 00:33:01;;;;;;;;;;;;;;;13.44;100.00;101140.25;5003686;28;1116;-71
2024/04/06 00:35:26;;;;;;;;;;;;;;;13.44;100.00;101142.94;4993939;28;1167;-71
2024/04/06 00:37:52;;;;;;;;;;;;;;;13.43;100.00;101135.09;5007023;28;1342;-71
2024/04/06 00:40:17;;;;;;;;;;;;;;;13.41;100.00;101135.31;4989135;28;1022;-71
2024/04/06 00:42:42;;;;;;;;;;;;;;;13.41;100.00;101138.00;4994683;28;1090;-71
2024/04/06 00:45:08;;;;;;;;;;;;;;;13.41;100.00;101142.59;4995587;28;1907;-72
2024/04/06 00:47:33;;;;;;;;;;;;;;;13.41;100.00;101135.31;4988954;28;1053;-71
2024/04/06 00:49:59;;;;;;;;;;;;;;;13.40;100.00;101136.38;4989835;28;1243;-71
2024/04/06 00:52:24;;;;;;;;;;;;;;;13.40;100.00;101136.38;4995132;28;1160;-71
2024/04/06 00:54:49;;;;;;;;;;;;;;;13.40;100.00;101140.94;5012391;28;1010;-71
2024/04/06 00:57:14;;;;;;;;;;;;;;;13.40;100.00;101133.66;5009044;28;1009;-71
2024/04/06 00:59:40;;;;;;;;;;;;;;;13.41;100.00;101143.41;4973405;28;1469;-71
2024/04/06 01:02:05;;;;;;;;;;;;;;;13.39;100.00;101145.50;5008520;28;1090;-71
2024/04/06 01:04:30;;;;;;;;;;;;;;;13.38;100.00;101143.88;5014741;28;1903;-71
2024/04/06 01:06:56;;;;;;;;;;;;;;;13.39;100.00;101142.81;5011685;28;1078;-71
2024/04/06 01:09:21;;;;;;;;;;;;;;;13.39;100.00;101150.91;4994817;28;1156;-71
2024/04/06 01:11:47;;;;;;;;;;;;;;;13.39;100.00;101144.69;5015681;28;1172;-71
2024/04/06 01:14:12;;;;;;;;;;;;;;;13.39;100.00;101140.13;5002246;28;1107;-71
2024/04/06 01:16:38;;;;;;;;;;;;;;;13.39;100.00;101144.69;4994486;28;1017;-71
2024/04/06 01:19:03;;;;;;;;;;;;;;;13.39;100.00;101150.06;4996539;28;994;-71
2024/04/06 01:21:28;;;;;;;;;;;;;;;13.37;100.00;101147.59;5009640;28;1195;-71
2024/04/06 01:23:54;;;;;;;;;;;;;;;13.38;100.00;101148.44;4988240;28;1902;-71
2024/04/06 01:26:22;;;;;;;;;;;;;;;13.38;100.00;101149.25;5010780;28;1117;-71
2024/04/06 01:28:48;;;;;;;;;;;;;;;13.36;100.00;101144.09;4996947;28;1159;-71
2024/04/06 01:31:13;;;;;;;;;;;;;;;13.36;100.00;101141.41;5017627;28;1276;-70
2024/04/06 01:33:39;;;;;;;;;;;;;;;13.36;100.00;101143.25;5009021;28;1547;-71
2024/04/06 01:36:05;;;;;;;;;;;;;;;13.34;100.00;101140.78;4987753;28;1173;-71
2024/04/06 01:38:30;;;;;;;;;;;;;;;13.34;100.00;101134.59;4976279;28;1398;-71
2024/04/06 01:40:55;;;;;;;;;;;;;;;13.34;100.00;101138.09;5004201;28;1081;-71
2024/04/06 01:43:21;;;;;;;;;;;;;;;13.33;100.00;101135.59;4976472;28;1955;-71
2024/04/06 01:45:46;;;;;;;;;;;;;;;13.32;100.00;101136.66;5010587;28;1052;-71
2024/04/06 01:48:11;;;;;;;;;;;;;;;13.32;100.00;101134.78;4999087;28;1415;-70
2024/04/06 01:50:37;;;;;;;;;;;;;;;13.30;100.00;101128.81;5006245;28;1009;-71
2024/04/06 01:53:02;;;;;;;;;;;;;;;13.30;100.00;101142.28;5006824;28;1133;-71
2024/04/06 01:55:27;;;;;;;;;;;;;;;13.30;100.00;101142.28;5010715;28;1098;-71
2024/04/06 01:57:54;;;;;;;;;;;;;;;13.26;100.00;101145.66;5009741;28;1128;-71
2024/04/06 02:00:19;;;;;;;;;;;;;;;13.28;100.00;101136.28;4991740;28;1478;-71
2024/04/06 02:02:44;;;;;;;;;;;;;;;13.27;100.00;101136.50;4987994;28;1136;-71
2024/04/06 02:05:10;;;;;;;;;;;;;;;13.29;100.00;101142.50;5014975;28;1965;-71
2024/04/06 02:07:35;;;;;;;;;;;;;;;13.26;100.00;101145.66;4993230;28;1090;-71
2024/04/06 02:10:00;;;;;;;;;;;;;;;13.27;100.00;101134.66;5003075;28;866;-71
2024/04/06 02:12:27;;;;;;;;;;;;;;;13.26;100.00;101134.88;5012988;28;1034;-71
2024/04/06 02:14:52;;;;;;;;;;;;;;;13.25;100.00;101131.34;5013392;28;990;-71
2024/04/06 02:17:17;;;;;;;;;;;;;;;13.23;100.00;101117.31;5009775;28;1118;-71
2024/04/06 02:19:43;;;;;;;;;;;;;;;13.22;100.00;101117.53;4990243;28;1029;-71
2024/04/06 02:22:08;;;;;;;;;;;;;;;13.23;100.00;101113.78;4992086;28;1140;-71
2024/04/06 02:24:34;;;;;;;;;;;;;;;13.20;100.00;101107.00;4994117;28;1978;-71
2024/04/06 02:26:59;;;;;;;;;;;;;;;13.20;100.00;101109.69;4983521;28;1105;-71
2024/04/06 02:29:25;;;;;;;;;;;;;;;13.19;100.00;101119.63;4992008;28;1334;-71
2024/04/06 02:31:52;;;;;;;;;;;;;;;13.20;100.00;101107.00;4991100;28;1097;-71
2024/04/06 02:34:17;;;;;;;;;;;;;;;13.20;100.00;101112.38;4992353;28;1274;-71
2024/04/06 02:36:42;;;;;;;;;;;;;;;13.18;100.00;101107.22;5003825;28;1190;-70
2024/04/06 02:39:10;;;;;;;;;;;;;;;13.16;100.00;101098.53;4999976;28;1010;-70
2024/04/06 02:41:35;;;;;;;;;;;;;;;13.17;100.00;101107.44;5008738;28;1140;-71
2024/04/06 02:44:00;;;;;;;;;;;;;;;13.15;100.00;101096.91;4998526;28;1938;-70
2024/04/06 02:46:26;;;;;;;;;;;;;;;13.19;100.00;101098.06;4990930;28;962;-70
2024/04/06 02:48:51;;;;;;;;;;;;;;;13.15;100.00;101109.53;4991805;28;1137;-71
2024/04/06 02:51:16;;;;;;;;;;;;;;;13.17;100.00;101112.84;5003303;28;1046;-71
2024/04/06 02:53:41;;;;;;;;;;;;;;;13.16;100.00;101111.19;5003226;28;1321;-71
2024/04/06 02:56:07;;;;;;;;;;;;;;;13.15;100.00;101115.75;4991797;28;967;-71
2024/04/06 02:58:32;;;;;;;;;;;;;;;13.16;100.00;101114.69;5002394;28;1160;-71
2024/04/06 03:00:57;;;;;;;;;;;;;;;13.13;100.00;101109.75;4991118;28;1325;-71
2024/04/06 03:03:23;;;;;;;;;;;;;;;13.12;100.00;101096.53;4982079;28;1902;-71
2024/04/06 03:05:48;;;;;;;;;;;;;;;13.10;100.00;101087.84;5007659;28;1060;-71
2024/04/06 03:08:13;;;;;;;;;;;;;;;13.12;100.00;101080.38;4996997;28;1069;-71
2024/04/06 03:10:39;;;;;;;;;;;;;;;13.11;100.00;101087.63;4995666;28;1076;-71
2024/04/06 03:13:04;;;;;;;;;;;;;;;13.13;100.00;101100.88;5010926;28;1492;-72
2024/04/06 03:15:29;;;;;;;;;;;;;;;13.09;100.00;101086.22;5013038;28;1404;-71
2024/04/06 03:17:54;;;;;;;;;;;;;;;13.09;100.00;101084.31;5014254;28;1209;-71
2024/04/06 03:20:20;;;;;;;;;;;;;;;13.10;100.00;101077.91;4992474;28;1180;-71
2024/04/06 03:22:57;;;;;;;;;;;;;;;13.11;100.00;101079.56;5008856;28;1164;-71
2024/04/06 03:25:22;;;;;;;;;;;;;;;13.11;100.00;101089.47;4985794;28;1918;-71
2024/04/06 03:27:47;;;;;;;;;;;;;;;13.09;100.00;101089.72;5000890;28;1115;-71
2024/04/06 03:30:13;;;;;;;;;;;;;;;13.08;100.00;101087.25;5006527;28;1163;-71
2024/04/06 03:32:38;;;;;;;;;;;;;;;13.08;100.00;101085.41;5000863;28;1166;-71
2024/04/06 03:35:03;;;;;;;;;;;;;;;13.07;100.00;101083.75;5004831;28;1305;-71
2024/04/06 03:37:30;;;;;;;;;;;;;;;13.04;100.00;101072.63;5002749;28;1164;-71
2024/04/06 03:39:56;;;;;;;;;;;;;;;13.03;100.00;101071.78;5001909;28;999;-70
2024/04/06 03:42:24;;;;;;;;;;;;;;;13.00;100.00;101056.94;5009601;28;1348;-70
2024/04/06 03:44:49;;;;;;;;;;;;;;;13.01;100.00;101053.16;4993257;28;1969;-71
2024/04/06 03:47:15;;;;;;;;;;;;;;;13.02;100.00;101057.50;4979795;28;1160;-71
2024/04/06 03:49:40;;;;;;;;;;;;;;;13.05;100.00;101067.00;5007339;28;930;-71
2024/04/06 03:52:05;;;;;;;;;;;;;;;13.01;100.00;101072.00;5000750;28;1034;-71
2024/04/06 03:54:31;;;;;;;;;;;;;;;13.01;100.00;101082.78;4997344;28;1442;-71
2024/04/06 03:56:56;;;;;;;;;;;;;;;13.00;100.00;101091.06;5014049;28;1138;-71
2024/04/06 03:59:21;;;;;;;;;;;;;;;12.97;100.00;101091.53;5004568;28;1165;-71
2024/04/06 04:01:46;;;;;;;;;;;;;;;12.99;100.00;101095.66;4999821;28;1231;-71
2024/04/06 04:04:12;;;;;;;;;;;;;;;13.01;100.00;101092.72;4989370;28;1943;-71
2024/04/06 04:06:37;;;;;;;;;;;;;;;12.95;100.00;101089.06;5020601;28;1037;-71
2024/04/06 04:09:02;;;;;;;;;;;;;;;12.96;100.00;101082.66;4995622;28;1312;-71
2024/04/06 04:11:27;;;;;;;;;;;;;;;12.92;100.00;101081.44;5001771;28;1505;-71
2024/04/06 04:13:53;;;;;;;;;;;;;;;12.92;100.00;101086.03;4995277;28;1233;-71
2024/04/06 04:16:18;;;;;;;;;;;;;;;12.92;100.00;101080.63;4984995;28;1196;-71
2024/04/06 04:18:43;;;;;;;;;;;;;;;12.93;100.00;101079.56;5011794;28;1092;-71
2024/04/06 04:21:08;;;;;;;;;;;;;;;12.90;100.00;101080.88;5003466;28;1023;-71
2024/04/06 04:23:34;;;;;;;;;;;;;;;12.90;100.00;101082.72;5012965;28;1905;-71
2024/04/06 04:25:59;;;;;;;;;;;;;;;12.86;100.00;101065.41;5000669;28;1001;-71
2024/04/06 04:28:24;;;;;;;;;;;;;;;12.86;100.00;101068.09;5011285;28;1113;-71
2024/04/06 04:30:50;;;;;;;;;;;;;;;12.87;100.00;101067.88;4983274;28;1051;-71
2024/04/06 04:33:16;;;;;;;;;;;;;;;12.86;100.00;101076.97;4981212;28;1190;-71
2024/04/06 04:35:42;;;;;;;;;;;;;;;12.84;100.00;101069.13;4994558;28;1027;-71
2024/04/06 04:38:07;;;;;;;;;;;;;;;12.86;100.00;101074.28;4973006;28;1454;-71
2024/04/06 04:40:32;;;;;;;;;;;;;;;12.87;100.00;101073.25;5002809;28;998;-71
2024/04/06 04:42:58;;;;;;;;;;;;;;;12.82;100.00;101065.81;5006982;28;1202;-71
2024/04/06 04:45:23;;;;;;;;;;;;;;;12.79;100.00;101068.97;4994800;28;1973;-71
2024/04/06 04:47:48;;;;;;;;;;;;;;;12.82;100.00;101057.75;4995742;28;1015;-71
2024/04/06 04:50:13;;;;;;;;;;;;;;;12.79;100.00;101066.28;5012949;28;1145;-71
2024/04/06 04:52:39;;;;;;;;;;;;;;;12.78;100.00;101061.13;4994146;28;1009;-70
2024/04/06 04:55:04;;;;;;;;;;;;;;;12.79;100.00;101060.09;4995294;28;1097;-71
2024/04/06 04:57:30;;;;;;;;;;;;;;;12.78;100.00;101053.88;4994564;28;1191;-71
2024/04/06 04:59:57;;;;;;;;;;;;;;;12.80;100.00;101046.41;4981035;28;1086;-71
2024/04/06 05:02:22;;;;;;;;;;;;;;;12.82;100.00;101038.09;4993822;28;1115;-71
2024/04/06 05:04:48;;;;;;;;;;;;;;;12.77;100.00;101033.41;4992767;28;1966;-71
2024/04/06 05:07:13;;;;;;;;;;;;;;;12.77;100.00;101033.41;4973771;28;1291;-71
2024/04/06 05:09:38;;;;;;;;;;;;;;;12.78;100.00;101021.59;4989413;28;1106;-71
2024/04/06 05:12:03;;;;;;;;;;;;;;;12.79;100.00;101033.97;5016706;28;1248;-71
2024/04/06 05:14:29;;;;;;;;;;;;;;;12.78;100.00;101034.22;4994282;28;1265;-71
2024/04/06 05:16:54;;;;;;;;;;;;;;;12.78;100.00;101029.66;4970313;28;1211;-71
2024/04/06 05:19:20;;;;;;;;;;;;;;;12.76;100.00;101026.38;5008211;28;1157;-71
2024/04/06 05:21:45;;;;;;;;;;;;;;;12.76;100.00;101020.19;5003392;28;1100;-71
2024/04/06 05:24:10;;;;;;;;;;;;;;;12.77;100.00;101017.25;4981642;28;1898;-71
2024/04/06 05:26:37;;;;;;;;;;;;;;;12.71;100.00;101020.00;4985854;28;1054;-71
2024/04/06 05:29:02;;;;;;;;;;;;;;;12.75;100.00;101019.38;4992869;28;1133;-71
2024/04/06 05:31:27;;;;;;;;;;;;;;;12.76;100.00;101020.97;5007881;28;1030;-70
2024/04/06 05:33:53;;;;;;;;;;;;;;;12.76;100.00;101031.75;5011193;28;1343;-70
2024/04/06 05:36:18;;;;;;;;;;;;;;;12.73;100.00;101026.00;5004196;28;1193;-71
2024/04/06 05:38:43;;;;;;;;;;;;;;;12.69;100.00;101031.00;4998260;28;1088;-71
2024/04/06 05:41:08;;;;;;;;;;;;;;;12.74;100.00;101039.25;4992043;28;1391;-71
2024/04/06 05:43:34;;;;;;;;;;;;;;;12.73;100.00;101042.97;5014165;28;1954;-71
2024/04/06 05:46:02;;;;;;;;;;;;;;;12.73;100.00;101047.53;5009522;28;1351;-71
2024/04/06 05:48:28;;;;;;;;;;;;;;;12.77;100.00;101057.63;5001016;28;1395;-71
2024/04/06 05:50:53;;;;;;;;;;;;;;;12.71;100.00;101061.22;5004109;28;1274;-71
2024/04/06 05:53:18;;;;;;;;;;;;;;;12.75;100.00;101048.13;4988924;28;1431;-71
2024/04/06 05:55:43;;;;;;;;;;;;;;;12.70;100.00;101035.34;5007925;28;1126;-71
2024/04/06 05:58:09;;;;;;;;;;;;;;;12.74;100.00;101039.25;4997828;28;1363;-71
2024/04/06 06:00:35;;;;;;;;;;;;;;;12.74;100.00;101033.84;5004166;28;1363;-70
2024/04/06 06:03:00;;;;;;;;;;;;;;;12.73;100.00;101040.28;5006541;28;1398;-71
2024/04/06 06:05:26;;;;;;;;;;;;;;;12.73;100.00;101039.47;4985408;28;1906;-71
2024/04/06 06:07:51;;;;;;;;;;;;;;;12.72;100.00;101038.63;5005879;28;1398;-71
2024/04/06 06:10:18;;;;;;;;;;;;;;;12.67;100.00;101023.16;5004605;28;1601;-70
2024/04/06 06:12:43;;;;;;;;;;;;;;;12.70;100.00;101027.28;4998674;28;1321;-71
2024/04/06 06:15:09;;;;;;;;;;;;;;;12.72;100.00;101024.34;4990773;28;1292;-71
2024/04/06 06:17:34;;;;;;;;;;;;;;;12.69;100.00;101027.50;4998906;28;1264;-71
2024/04/06 06:19:59;;;;;;;;;;;;;;;12.72;100.00;101024.34;5012311;28;1097;-71
2024/04/06 06:22:25;;;;;;;;;;;;;;;12.73;100.00;101028.69;4975561;28;1315;-71
2024/04/06 06:24:50;;;;;;;;;;;;;;;12.77;100.00;101022.63;4992070;28;1979;-71
2024/04/06 06:27:15;;;;;;;;;;;;;;;12.73;100.00;101013.38;5007259;28;1191;-71
2024/04/06 06:29:41;;;;;;;;;;;;;;;12.72;100.00;101009.03;4993477;28;1090;-71
2024/04/06 06:32:06;;;;;;;;;;;;;;;12.71;100.00;101015.47;5007662;28;1174;-70
2024/04/06 06:34:31;;;;;;;;;;;;;;;12.75;100.00;101011.28;4962578;28;1100;-70
2024/04/06 06:36:57;;;;;;;;;;;;;;;12.78;100.00;100999.22;4998629;28;1131;-71
2024/04/06 06:39:22;;;;;;;;;;;;;;;12.79;100.00;101006.25;4989373;28;1282;-70
2024/04/06 06:41:47;;;;;;;;;;;;;;;12.81;100.00;101002.31;4987425;28;1228;-70
2024/04/06 06:44:13;;;;;;;;;;;;;;;12.86;100.00;101001.63;4989599;28;1911;-70
2024/04/06 06:46:38;;;;;;;;;;;;;;;12.90;100.00;101008.19;5004892;28;1399;-70
2024/04/06 06:49:03;;;;;;;;;;;;;;;12.97;100.00;101016.16;5001651;28;1148;-71
2024/04/06 06:51:29;;;;;;;;;;;;;;;13.00;100.00;101003.09;5001213;28;1045;-70
2024/04/06 06:53:54;;;;;;;;;;;;;;;13.03;100.00;101004.47;4981191;28;1254;-70
2024/04/06 06:56:22;;;;;;;;;;;;;;;13.01;100.00;101004.72;4991130;28;1380;-70
2024/04/06 06:58:51;;;;;;;;;;;;;;;13.04;100.00;101006.13;4973282;28;1377;-70
2024/04/06 07:01:16;;;;;;;;;;;;;;;13.09;100.00;101002.75;4999248;28;2014;-70
2024/04/06 07:03:42;;;;;;;;;;;;;;;13.08;100.00;101010.00;4991366;28;1906;-70
2024/04/06 07:06:08;;;;;;;;;;;;;;;13.09;100.00;101010.81;4982370;28;1103;-70
2024/04/06 07:08:33;;;;;;;;;;;;;;;13.09;100.00;101006.25;4991359;28;1353;-70
2024/04/06 07:11:05;;;;;;;;;;;;;;;13.24;100.00;101005.84;4990724;28;1208;-70
2024/04/06 07:13:31;;;;;;;;;;;;;;;13.34;100.00;101014.19;4976668;28;1438;-70
2024/04/06 07:16:06;;;;;;;;;;;;;;;13.37;100.00;101007.53;5007744;28;1319;-70
2024/04/06 07:18:32;;;;;;;;;;;;;;;13.46;100.00;101011.53;4988160;28;1333;-69
2024/04/06 07:20:57;;;;;;;;;;;;;;;13.49;100.00;100991.38;4975936;28;1270;-69
2024/04/06 07:23:23;;;;;;;;;;;;;;;13.52;100.00;100999.00;5002537;28;1355;-70
2024/04/06 07:25:48;;;;;;;;;;;;;;;13.56;100.00;100989.41;4988218;28;1960;-70
2024/04/06 07:28:13;;;;;;;;;;;;;;;13.53;100.00;100979.09;4987174;28;1165;-69
2024/04/06 07:30:38;;;;;;;;;;;;;;;13.61;100.00;100983.31;5004425;28;1356;-70
2024/04/06 07:33:04;;;;;;;;;;;;;;;13.65;100.00;100985.31;4971319;28;1229;-70
2024/04/06 07:35:29;;;;;;;;;;;;;;;13.67;100.00;100971.59;5009106;28;1426;-69
2024/04/06 07:37:54;;;;;;;;;;;;;;;13.71;100.00;100972.78;5000760;28;1172;-70
2024/04/06 07:40:20;;;;;;;;;;;;;;;13.75;100.00;100967.72;4989932;28;1381;-70
2024/04/06 07:42:45;;;;;;;;;;;;;;;13.78;100.00;100964.59;4974148;28;1352;-69
2024/04/06 07:45:10;;;;;;;;;;;;;;;13.80;100.00;100970.56;4980448;28;1972;-70
2024/04/06 07:47:36;;;;;;;;;;;;;;;13.82;100.00;100966.59;4988439;28;1385;-70
2024/04/06 07:50:03;;;;;;;;;;;;;;;13.90;100.00;100976.19;5005802;28;1056;-70
2024/04/06 07:52:29;;;;;;;;;;;;;;;13.96;100.00;100967.16;4989618;28;1364;-70
2024/04/06 07:54:55;;;;;;;;;;;;;;;14.02;100.00;100976.19;4979264;28;1214;-69
2024/04/06 07:57:20;;;;;;;;;;;;;;;14.04;100.00;100974.06;5007493;28;1262;-70
2024/04/06 07:59:45;;;;;;;;;;;;;;;14.07;100.00;100979.81;5007738;28;1097;-69
2024/04/06 08:02:10;;;;;;;;;;;;;;;14.11;100.00;100976.63;5005975;28;1281;-70
2024/04/06 08:04:36;;;;;;;;;;;;;;;14.09;100.00;100976.88;4974128;28;1902;-70
2024/04/06 08:07:03;;;;;;;;;;;;;;;14.07;100.00;100974.41;4991310;28;1195;-70
2024/04/06 08:09:29;;;;;;;;;;;;;;;14.12;100.00;100976.41;4969879;28;1247;-70
2024/04/06 08:11:54;;;;;;;;;;;;;;;14.17;100.00;100975.69;4992072;28;1286;-70
2024/04/06 08:14:19;;;;;;;;;;;;;;;14.19;100.00;100958.22;5007326;28;1033;-70
2024/04/06 08:16:45;;;;;;;;;;;;;;;14.24;100.00;100950.22;5006917;28;1147;-70
2024/04/06 08:19:10;;;;;;;;;;;;;;;14.29;100.00;100954.09;4989186;28;1121;-70
2024/04/06 08:21:35;;;;;;;;;;;;;;;14.32;100.00;100951.72;5007313;28;1266;-70
2024/04/06 08:24:01;;;;;;;;;;;;;;;14.36;100.00;100944.78;5005801;28;1903;-70
2024/04/06 08:26:26;;;;;;;;;;;;;;;14.42;100.00;100943.03;5006269;28;1075;-70
2024/04/06 08:28:52;;;;;;;;;;;;;;;14.43;100.00;100941.97;4989225;28;1156;-70
2024/04/06 08:31:17;;;;;;;;;;;;;;;14.49;100.00;100946.41;4988791;28;1227;-70
2024/04/06 08:33:43;;;;;;;;;;;;;;;14.52;100.00;100937.81;5006661;28;1237;-71
2024/04/06 08:36:08;;;;;;;;;;;;;;;14.54;100.00;100945.69;4989295;28;1359;-70
2024/04/06 08:38:33;;;;;;;;;;;;;;;14.57;100.00;100943.31;4985453;28;1345;-69
2024/04/06 08:41:00;;;;;;;;;;;;;;;14.57;100.00;100951.41;5007242;28;1293;-70
2024/04/06 08:43:26;;;;;;;;;;;;;;;14.61;100.00;100946.38;4994621;28;1157;-70
2024/04/06 08:45:51;;;;;;;;;;;;;;;14.64;100.00;100950.47;4982521;28;1907;-70
2024/04/06 08:48:16;;;;;;;;;;;;;;;14.67;100.00;100940.03;4991826;28;1139;-70
2024/04/06 08:50:41;;;;;;;;;;;;;;;14.73;100.00;100938.25;4984861;28;1240;-70
2024/04/06 08:53:07;;;;;;;;;;;;;;;14.70;100.00;100934.16;4985058;28;1078;-70
2024/04/06 08:55:32;;;;;;;;;;;;;;;14.74;100.00;100929.06;5019098;28;1260;-70
2024/04/06 08:57:57;;;;;;;;;;;;;;;14.75;100.00;100936.91;4988793;28;1154;-70
2024/04/06 09:00:25;;;;;;;;;;;;;;;14.80;100.00;100932.69;4998449;28;1109;-70
2024/04/06 09:02:50;;;;;;;;;;;;;;;14.85;100.00;100933.59;4990781;28;1101;-70
2024/04/06 09:05:15;;;;;;;;;;;;;;;14.88;100.00;100935.81;4986840;28;1907;-70
2024/04/06 09:07:41;;;;;;;;;;;;;;;14.91;100.00;100929.91;4999748;28;1075;-70
2024/04/06 09:10:06;;;;;;;;;;;;;;;14.92;100.00;100934.28;4971325;28;1397;-70
2024/04/06 09:12:31;;;;;;;;;;;;;;;14.98;100.00;100913.59;4995502;28;1339;-70
2024/04/06 09:14:57;;;;;;;;;;;;;;;14.99;100.00;100914.38;5011350;28;1418;-70
2024/04/06 09:17:22;;;;;;;;;;;;;;;15.02;100.00;100914.72;5000414;28;1340;-70
2024/04/06 09:19:47;;;;;;;;;;;;;;;15.01;100.00;100915.78;5003159;28;1337;-70
2024/04/06 09:22:12;;;;;;;;;;;;;;;15.02;100.00;100911.19;4999532;28;1343;-70
2024/04/06 09:24:38;;;;;;;;;;;;;;;15.05;100.00;100900.75;4996489;28;1910;-70
2024/04/06 09:27:07;;;;;;;;;;;;;;;15.03;100.00;100904.75;4979149;28;1299;-71
2024/04/06 09:29:32;;;;;;;;;;;;;;;15.00;100.00;100895.25;4992672;28;1411;-71
2024/04/06 09:31:58;;;;;;;;;;;;;;;14.98;100.00;100896.53;4991050;28;1114;-71
2024/04/06 09:34:23;;;;;;;;;;;;;;;14.92;100.00;100899.16;4991989;28;1253;-70
2024/04/06 09:36:50;;;;;;;;;;;;;;;14.92;100.00;100903.75;4998958;28;1244;-70
2024/04/06 09:39:16;;;;;;;;;;;;;;;14.93;100.00;100884.63;4973724;28;1442;-70
2024/04/06 09:41:41;;;;;;;;;;;;;;;14.95;100.00;100877.06;4985007;28;1164;-70
2024/04/06 09:44:06;;;;;;;;;;;;;;;14.92;100.00;100868.66;5001232;28;1981;-70
2024/04/06 09:46:31;;;;;;;;;;;;;;;14.96;100.00;100864.38;4975393;28;1239;-70
2024/04/06 09:48:57;;;;;;;;;;;;;;;14.95;100.00;100860.88;4992649;28;1356;-70
2024/04/06 09:51:23;;;;;;;;;;;;;;;15.00;100.00;100851.22;5007219;28;943;-70
2024/04/06 09:53:48;;;;;;;;;;;;;;;14.98;100.00;100847.94;5009944;28;1132;-71
2024/04/06 09:56:13;;;;;;;;;;;;;;;14.89;100.00;100852.94;4991647;28;991;-71
2024/04/06 09:58:45;;;;;;;;;;;;;;;14.85;100.00;100865.28;4985821;28;1104;-71
2024/04/06 10:01:14;;;;;;;;;;;;;;;14.84;100.00;100861.75;4998044;28;1788;-71
2024/04/06 10:03:43;;;;;;;;;;;;;;;14.79;100.00;100869.78;5005344;28;1902;-70
2024/04/06 10:06:09;;;;;;;;;;;;;;;14.86;100.00;100862.34;5005194;28;1112;-71
2024/04/06 10:08:44;;;;;;;;;;;;;;;14.91;100.00;100858.91;4986120;28;1411;-70
2024/04/06 10:11:09;;;;;;;;;;;;;;;15.04;100.00;100852.34;4988838;28;1312;-71
2024/04/06 10:13:35;;;;;;;;;;;;;;;15.04;100.00;100846.94;4990980;28;1409;-70
2024/04/06 10:16:02;;;;;;;;;;;;;;;15.08;100.00;100840.84;5003795;28;1019;-70
2024/04/06 10:18:28;;;;;;;;;;;;;;;15.19;100.00;100836.41;4985223;28;1201;-70
2024/04/06 10:20:55;;;;;;;;;;;;;;;15.16;100.00;100833.34;5008481;28;1180;-70
2024/04/06 10:23:20;;;;;;;;;;;;;;;15.12;100.00;100830.34;5010853;28;1330;-70
2024/04/06 10:25:46;;;;;;;;;;;;;;;15.10;100.00;100835.19;5006357;28;1974;-71
2024/04/06 10:28:11;;;;;;;;;;;;;;;15.21;100.00;100828.03;5007204;28;1340;-70
2024/04/06 10:30:37;;;;;;;;;;;;;;;15.18;100.00;100831.25;4990928;28;1584;-71
2024/04/06 10:33:02;;;;;;;;;;;;;;;15.15;100.00;100832.53;4987156;28;1454;-71
2024/04/06 10:35:28;;;;;;;;;;;;;;;15.19;100.00;100832.88;5008971;28;1418;-71
2024/04/06 10:37:53;;;;;;;;;;;;;;;15.20;100.00;100826.41;4983977;28;1347;-70
2024/04/06 10:40:22;;;;;;;;;;;;;;;15.18;100.00;100826.66;5008990;28;1237;-71
2024/04/06 10:42:47;;;;;;;;;;;;;;;15.19;100.00;100820.19;4987496;28;1476;-71
2024/04/06 10:45:14;;;;;;;;;;;;;;;15.24;100.00;100816.75;5006598;28;1981;-71
2024/04/06 10:47:39;;;;;;;;;;;;;;;15.26;100.00;100828.94;5008094;28;1100;-71
2024/04/06 10:50:08;;;;;;;;;;;;;;;15.22;100.00;100816.19;5006840;28;1140;-71
2024/04/06 10:52:34;;;;;;;;;;;;;;;15.21;100.00;100815.34;4973883;28;1347;-71
2024/04/06 10:55:09;;;;;;;;;;;;;;;15.22;100.00;100817.00;4987682;28;1371;-71
2024/04/06 10:57:34;;;;;;;;;;;;;;;15.22;100.00;100819.69;5007716;28;1324;-71
2024/04/06 10:59:59;;;;;;;;;;;;;;;15.21;100.00;100823.44;5006218;28;1366;-71
2024/04/06 11:02:25;;;;;;;;;;;;;;;15.28;100.00;100812.50;4989508;28;1142;-71
2024/04/06 11:04:50;;;;;;;;;;;;;;;15.26;100.00;100809.19;5006587;28;1914;-70
2024/04/06 11:07:16;;;;;;;;;;;;;;;15.37;100.00;100805.59;5007120;28;1292;-71
2024/04/06 11:09:41;;;;;;;;;;;;;;;15.39;100.00;100799.94;5005281;28;1407;-71
2024/04/06 11:12:06;;;;;;;;;;;;;;;15.42;100.00;100784.03;4984601;28;1367;-71
2024/04/06 11:14:32;;;;;;;;;;;;;;;15.42;100.00;100778.63;5007855;28;1320;-70
2024/04/06 11:16:59;;;;;;;;;;;;;;;15.47;100.00;100772.50;4988520;28;1399;-71
2024/04/06 11:19:24;;;;;;;;;;;;;;;15.45;100.00;100769.19;5002403;28;1172;-71
2024/04/06 11:21:50;;;;;;;;;;;;;;;15.51;100.00;100776.31;5007442;28;1341;-71
2024/04/06 11:24:15;;;;;;;;;;;;;;;15.51;100.00;100772.78;4991696;28;2003;-71
2024/04/06 11:26:40;;;;;;;;;;;;;;;15.50;100.00;100758.47;4990366;28;1077;-71
2024/04/06 11:29:06;;;;;;;;;;;;;;;15.52;100.00;100752.81;4975307;28;1463;-71
2024/04/06 11:31:32;;;;;;;;;;;;;;;15.56;100.00;100757.47;4972877;28;1291;-71
2024/04/06 11:33:58;;;;;;;;;;;;;;;15.67;100.00;100757.59;4989852;28;1924;-70
2024/04/06 11:36:23;;;;;;;;;;;;;;;15.65;100.00;100750.53;4970413;28;1140;-70
2024/04/06 11:38:48;;;;;;;;;;;;;;;15.64;100.00;100758.91;4988959;28;1355;-70
2024/04/06 11:41:14;;;;;;;;;;;;;;;15.66;100.00;100748.63;4987483;28;1323;-70
2024/04/06 11:43:39;;;;;;;;;;;;;;;15.73;100.00;100753.88;4989689;28;1922;-70
2024/04/06 11:46:04;;;;;;;;;;;;;;;15.70;100.00;100765.19;4990667;28;1049;-70
2024/04/06 11:48:29;;;;;;;;;;;;;;;15.72;100.00;100760.34;4993087;28;1023;-70
2024/04/06 11:50:55;;;;;;;;;;;;;;;15.73;100.00;100764.69;5011822;28;1393;-71
2024/04/06 11:53:20;;;;;;;;;;;;;;;15.77;100.00;100755.00;4996230;28;1037;-70
2024/04/06 11:55:46;;;;;;;;;;;;;;;15.81;100.00;100756.97;4990944;28;997;-70
2024/04/06 11:58:11;;;;;;;;;;;;;;;15.86;100.00;100756.22;4997014;28;1046;-70
2024/04/06 12:00:36;;;;;;;;;;;;;;;18.43;100.00;100746.00;4974684;28;1394;-71
2024/04/06 12:03:02;;;;;;;;;;;;;;;18.61;100.00;100759.03;4985473;28;1542;-70
2024/04/06 12:05:27;;;;;;;;;;;;;;;20.33;100.00;100755.41;5006103;28;1918;-71
2024/04/06 12:07:52;;;;;;;;;;;;;;;19.77;100.00;100756.56;4999524;28;1136;-70
2024/04/06 12:10:18;;;;;;;;;;;;;;;18.29;100.00;100751.16;5002572;28;1118;-71
2024/04/06 12:12:43;;;;;;;;;;;;;;;17.45;100.00;100751.19;5006976;28;1216;-72
2024/04/06 12:15:08;;;;;;;;;;;;;;;17.04;100.00;100746.41;5000345;28;1202;-73
2024/04/06 12:17:34;;;;;;;;;;;;;;;16.84;100.00;100735.41;4991080;28;1900;-73
2024/04/06 12:19:59;;;;;;;;;;;;;;;16.70;100.00;100730.44;4993845;28;1309;-73
2024/04/06 12:22:24;;;;;;;;;;;;;;;16.65;100.00;100719.56;4977471;28;1373;-73
2024/04/06 12:24:50;;;;;;;;;;;;;;;16.55;100.00;100719.47;4977331;28;1914;-72
2024/04/06 12:27:18;;;;;;;;;;;;;;;16.56;100.00;100723.03;5007417;28;1308;-73
2024/04/06 12:29:44;;;;;;;;;;;;;;;16.54;100.00;100723.28;4979563;28;1512;-73